sensor_id;sensor_type;location;lat;lon;timestamp;P1;durP1;ratioP1;P2;durP2;ratioP2
60368;SDS011;46208;44.634;10.492;2022-11-21T00:01:39;2.40;;;1.23;;
60368;SDS011;46208;44.634;10.492;2022-11-21T00:04:43;2.63;;;1.58;;
60368;SDS011;46208;44.634;10.492;2022-11-21T00:07:47;1.58;;;1.33;;
60368;SDS011;46208;44.634;10.492;2022-11-21T00:10:52;3.88;;;2.53;;
60368;SDS011;46208;44.634;10.492;2022-11-21T00:13:56;1.83;;;1.67;;
60368;SDS011;46208;44.634;10.492;2022-11-21T00:17:00;1.55;;;1.42;;
60368;SDS011;46208;44.634;10.492;2022-11-21T00:20:04;2.72;;;2.50;;
60368;SDS011;46208;44.634;10.492;2022-11-21T00:23:08;3.97;;;2.55;;
60368;SDS011;46208;44.634;10.492;2022-11-21T00:26:13;4.97;;;2.75;;
60368;SDS011;46208;44.634;10.492;2022-11-21T00:29:17;4.55;;;2.13;;
60368;SDS011;46208;44.634;10.492;2022-11-21T00:32:21;2.72;;;2.40;;
60368;SDS011;46208;44.634;10.492;2022-11-21T00:35:25;3.00;;;2.67;;
60368;SDS011;46208;44.634;10.492;2022-11-21T00:38:29;7.68;;;1.63;;
60368;SDS011;46208;44.634;10.492;2022-11-21T00:41:33;3.63;;;1.58;;
60368;SDS011;46208;44.634;10.492;2022-11-21T00:44:36;1.58;;;1.23;;
60368;SDS011;46208;44.634;10.492;2022-11-21T00:47:40;2.47;;;1.65;;
60368;SDS011;46208;44.634;10.492;2022-11-21T00:50:46;1.70;;;1.60;;
60368;SDS011;46208;44.634;10.492;2022-11-21T00:53:51;2.05;;;1.95;;
60368;SDS011;46208;44.634;10.492;2022-11-21T00:56:55;5.13;;;2.22;;
60368;SDS011;46208;44.634;10.492;2022-11-21T00:59:59;0.52;;;0.52;;
60368;SDS011;46208;44.634;10.492;2022-11-21T01:03:03;1.60;;;1.33;;
60368;SDS011;46208;44.634;10.492;2022-11-21T01:06:10;2.60;;;1.92;;
60368;SDS011;46208;44.634;10.492;2022-11-21T01:09:15;2.22;;;1.30;;
60368;SDS011;46208;44.634;10.492;2022-11-21T01:12:19;4.10;;;1.58;;
60368;SDS011;46208;44.634;10.492;2022-11-21T01:15:23;2.08;;;1.98;;
60368;SDS011;46208;44.634;10.492;2022-11-21T01:18:27;1.75;;;0.80;;
60368;SDS011;46208;44.634;10.492;2022-11-21T01:21:31;1.85;;;1.48;;
60368;SDS011;46208;44.634;10.492;2022-11-21T01:24:35;1.23;;;0.93;;
60368;SDS011;46208;44.634;10.492;2022-11-21T01:27:38;0.90;;;0.90;;
60368;SDS011;46208;44.634;10.492;2022-11-21T01:30:42;1.30;;;1.20;;
60368;SDS011;46208;44.634;10.492;2022-11-21T01:33:46;2.80;;;1.50;;
60368;SDS011;46208;44.634;10.492;2022-11-21T01:36:50;4.60;;;3.00;;
60368;SDS011;46208;44.634;10.492;2022-11-21T01:39:54;1.65;;;1.27;;
60368;SDS011;46208;44.634;10.492;2022-11-21T01:43:00;1.15;;;1.05;;
60368;SDS011;46208;44.634;10.492;2022-11-21T01:46:16;3.53;;;1.08;;
60368;SDS011;46208;44.634;10.492;2022-11-21T01:49:25;1.58;;;1.48;;
60368;SDS011;46208;44.634;10.492;2022-11-21T01:52:31;0.88;;;0.68;;
60368;SDS011;46208;44.634;10.492;2022-11-21T01:55:35;1.70;;;0.50;;
60368;SDS011;46208;44.634;10.492;2022-11-21T01:58:39;1.00;;;0.52;;
60368;SDS011;46208;44.634;10.492;2022-11-21T02:01:43;1.92;;;1.05;;
60368;SDS011;46208;44.634;10.492;2022-11-21T02:04:49;0.90;;;0.90;;
60368;SDS011;46208;44.634;10.492;2022-11-21T02:07:56;0.85;;;0.85;;
60368;SDS011;46208;44.634;10.492;2022-11-21T02:14:29;1.65;;;1.27;;
60368;SDS011;46208;44.634;10.492;2022-11-21T02:17:34;0.75;;;0.75;;
60368;SDS011;46208;44.634;10.492;2022-11-21T02:20:38;0.50;;;0.50;;
60368;SDS011;46208;44.634;10.492;2022-11-21T02:23:47;1.08;;;1.08;;
60368;SDS011;46208;44.634;10.492;2022-11-21T02:26:56;0.30;;;0.30;;
60368;SDS011;46208;44.634;10.492;2022-11-21T02:30:00;0.50;;;0.50;;
60368;SDS011;46208;44.634;10.492;2022-11-21T02:33:06;0.75;;;0.75;;
60368;SDS011;46208;44.634;10.492;2022-11-21T02:39:43;0.98;;;0.98;;
60368;SDS011;46208;44.634;10.492;2022-11-21T02:43:00;0.20;;;0.20;;
60368;SDS011;46208;44.634;10.492;2022-11-21T02:46:05;0.20;;;0.20;;
60368;SDS011;46208;44.634;10.492;2022-11-21T02:49:09;0.30;;;0.30;;
60368;SDS011;46208;44.634;10.492;2022-11-21T02:52:13;0.70;;;0.40;;
60368;SDS011;46208;44.634;10.492;2022-11-21T02:55:16;0.30;;;0.30;;
60368;SDS011;46208;44.634;10.492;2022-11-21T02:58:20;0.52;;;0.52;;
60368;SDS011;46208;44.634;10.492;2022-11-21T03:01:24;0.40;;;0.40;;
60368;SDS011;46208;44.634;10.492;2022-11-21T03:04:28;0.22;;;0.22;;
60368;SDS011;46208;44.634;10.492;2022-11-21T03:07:32;0.20;;;0.20;;
60368;SDS011;46208;44.634;10.492;2022-11-21T03:10:36;0.38;;;0.38;;
60368;SDS011;46208;44.634;10.492;2022-11-21T03:13:40;0.35;;;0.35;;
60368;SDS011;46208;44.634;10.492;2022-11-21T03:16:44;0.20;;;0.20;;
60368;SDS011;46208;44.634;10.492;2022-11-21T03:19:48;0.25;;;0.25;;
60368;SDS011;46208;44.634;10.492;2022-11-21T03:22:52;0.93;;;0.93;;
60368;SDS011;46208;44.634;10.492;2022-11-21T03:25:57;0.65;;;0.65;;
60368;SDS011;46208;44.634;10.492;2022-11-21T03:29:01;1.13;;;0.22;;
60368;SDS011;46208;44.634;10.492;2022-11-21T03:32:04;0.95;;;0.95;;
60368;SDS011;46208;44.634;10.492;2022-11-21T03:35:08;0.73;;;0.73;;
60368;SDS011;46208;44.634;10.492;2022-11-21T03:38:13;0.85;;;0.45;;
60368;SDS011;46208;44.634;10.492;2022-11-21T03:41:16;0.20;;;0.20;;
60368;SDS011;46208;44.634;10.492;2022-11-21T03:44:32;0.25;;;0.25;;
60368;SDS011;46208;44.634;10.492;2022-11-21T03:47:36;0.70;;;0.32;;
60368;SDS011;46208;44.634;10.492;2022-11-21T03:50:43;0.20;;;0.20;;
60368;SDS011;46208;44.634;10.492;2022-11-21T03:53:47;0.98;;;0.98;;
60368;SDS011;46208;44.634;10.492;2022-11-21T03:56:51;2.08;;;0.50;;
60368;SDS011;46208;44.634;10.492;2022-11-21T03:59:55;0.20;;;0.20;;
60368;SDS011;46208;44.634;10.492;2022-11-21T04:02:59;0.30;;;0.30;;
60368;SDS011;46208;44.634;10.492;2022-11-21T04:06:04;0.43;;;0.40;;
60368;SDS011;46208;44.634;10.492;2022-11-21T04:09:08;0.93;;;0.90;;
60368;SDS011;46208;44.634;10.492;2022-11-21T04:12:11;0.20;;;0.20;;
60368;SDS011;46208;44.634;10.492;2022-11-21T04:15:15;1.17;;;1.08;;
60368;SDS011;46208;44.634;10.492;2022-11-21T04:18:19;0.30;;;0.30;;
60368;SDS011;46208;44.634;10.492;2022-11-21T04:21:23;0.20;;;0.20;;
60368;SDS011;46208;44.634;10.492;2022-11-21T04:24:28;0.40;;;0.40;;
60368;SDS011;46208;44.634;10.492;2022-11-21T04:27:32;0.20;;;0.20;;
60368;SDS011;46208;44.634;10.492;2022-11-21T04:30:36;0.32;;;0.32;;
60368;SDS011;46208;44.634;10.492;2022-11-21T04:33:40;0.22;;;0.20;;
60368;SDS011;46208;44.634;10.492;2022-11-21T04:36:44;1.15;;;1.10;;
60368;SDS011;46208;44.634;10.492;2022-11-21T04:39:47;0.30;;;0.30;;
60368;SDS011;46208;44.634;10.492;2022-11-21T04:42:51;0.22;;;0.22;;
60368;SDS011;46208;44.634;10.492;2022-11-21T04:45:55;0.45;;;0.40;;
60368;SDS011;46208;44.634;10.492;2022-11-21T04:48:59;0.30;;;0.30;;
60368;SDS011;46208;44.634;10.492;2022-11-21T04:52:03;0.35;;;0.35;;
60368;SDS011;46208;44.634;10.492;2022-11-21T04:55:08;0.50;;;0.50;;
60368;SDS011;46208;44.634;10.492;2022-11-21T04:58:12;0.30;;;0.30;;
60368;SDS011;46208;44.634;10.492;2022-11-21T05:01:16;0.20;;;0.20;;
60368;SDS011;46208;44.634;10.492;2022-11-21T05:04:20;0.22;;;0.22;;
60368;SDS011;46208;44.634;10.492;2022-11-21T05:07:24;0.35;;;0.35;;
60368;SDS011;46208;44.634;10.492;2022-11-21T05:10:28;0.40;;;0.40;;
60368;SDS011;46208;44.634;10.492;2022-11-21T05:13:32;0.73;;;0.30;;
60368;SDS011;46208;44.634;10.492;2022-11-21T05:16:36;0.20;;;0.20;;
60368;SDS011;46208;44.634;10.492;2022-11-21T05:19:40;0.30;;;0.30;;
60368;SDS011;46208;44.634;10.492;2022-11-21T05:22:44;0.35;;;0.35;;
60368;SDS011;46208;44.634;10.492;2022-11-21T05:25:51;0.83;;;0.60;;
60368;SDS011;46208;44.634;10.492;2022-11-21T05:28:55;0.30;;;0.30;;
60368;SDS011;46208;44.634;10.492;2022-11-21T05:32:00;0.47;;;0.47;;
60368;SDS011;46208;44.634;10.492;2022-11-21T05:35:04;0.30;;;0.30;;
60368;SDS011;46208;44.634;10.492;2022-11-21T05:38:07;0.68;;;0.68;;
60368;SDS011;46208;44.634;10.492;2022-11-21T05:41:11;0.30;;;0.30;;
60368;SDS011;46208;44.634;10.492;2022-11-21T05:44:15;0.95;;;0.45;;
60368;SDS011;46208;44.634;10.492;2022-11-21T05:47:19;2.15;;;0.50;;
60368;SDS011;46208;44.634;10.492;2022-11-21T05:50:23;0.35;;;0.35;;
60368;SDS011;46208;44.634;10.492;2022-11-21T05:53:27;0.52;;;0.52;;
60368;SDS011;46208;44.634;10.492;2022-11-21T05:56:31;0.47;;;0.35;;
60368;SDS011;46208;44.634;10.492;2022-11-21T05:59:35;0.30;;;0.30;;
60368;SDS011;46208;44.634;10.492;2022-11-21T06:02:39;0.20;;;0.20;;
60368;SDS011;46208;44.634;10.492;2022-11-21T06:06:02;0.55;;;0.55;;
60368;SDS011;46208;44.634;10.492;2022-11-21T06:09:10;0.43;;;0.43;;
60368;SDS011;46208;44.634;10.492;2022-11-21T06:12:14;2.90;;;0.95;;
60368;SDS011;46208;44.634;10.492;2022-11-21T06:15:17;0.38;;;0.38;;
60368;SDS011;46208;44.634;10.492;2022-11-21T06:18:21;0.68;;;0.60;;
60368;SDS011;46208;44.634;10.492;2022-11-21T06:21:26;2.88;;;0.63;;
60368;SDS011;46208;44.634;10.492;2022-11-21T06:24:31;0.95;;;0.93;;
60368;SDS011;46208;44.634;10.492;2022-11-21T06:27:34;1.42;;;1.33;;
60368;SDS011;46208;44.634;10.492;2022-11-21T06:30:38;2.60;;;2.03;;
60368;SDS011;46208;44.634;10.492;2022-11-21T06:33:42;1.55;;;1.25;;
60368;SDS011;46208;44.634;10.492;2022-11-21T06:36:47;0.30;;;0.30;;
60368;SDS011;46208;44.634;10.492;2022-11-21T06:39:51;1.65;;;1.17;;
60368;SDS011;46208;44.634;10.492;2022-11-21T06:42:55;1.00;;;0.60;;
60368;SDS011;46208;44.634;10.492;2022-11-21T06:45:59;0.38;;;0.38;;
60368;SDS011;46208;44.634;10.492;2022-11-21T06:49:05;0.28;;;0.28;;
60368;SDS011;46208;44.634;10.492;2022-11-21T06:52:09;1.67;;;1.02;;
60368;SDS011;46208;44.634;10.492;2022-11-21T06:55:13;0.70;;;0.70;;
60368;SDS011;46208;44.634;10.492;2022-11-21T06:58:17;0.50;;;0.50;;
60368;SDS011;46208;44.634;10.492;2022-11-21T07:01:21;0.55;;;0.55;;
60368;SDS011;46208;44.634;10.492;2022-11-21T07:04:25;1.38;;;0.52;;
60368;SDS011;46208;44.634;10.492;2022-11-21T07:07:29;0.82;;;0.82;;
60368;SDS011;46208;44.634;10.492;2022-11-21T07:10:33;0.30;;;0.30;;
60368;SDS011;46208;44.634;10.492;2022-11-21T07:13:37;0.20;;;0.20;;
60368;SDS011;46208;44.634;10.492;2022-11-21T07:16:41;0.30;;;0.30;;
60368;SDS011;46208;44.634;10.492;2022-11-21T07:19:44;1.25;;;0.60;;
60368;SDS011;46208;44.634;10.492;2022-11-21T07:22:52;0.35;;;0.35;;
60368;SDS011;46208;44.634;10.492;2022-11-21T07:26:00;0.97;;;0.97;;
60368;SDS011;46208;44.634;10.492;2022-11-21T07:29:05;0.20;;;0.20;;
60368;SDS011;46208;44.634;10.492;2022-11-21T07:32:08;0.20;;;0.20;;
60368;SDS011;46208;44.634;10.492;2022-11-21T07:35:12;0.60;;;0.60;;
60368;SDS011;46208;44.634;10.492;2022-11-21T07:38:16;0.30;;;0.30;;
60368;SDS011;46208;44.634;10.492;2022-11-21T07:41:20;0.20;;;0.20;;
60368;SDS011;46208;44.634;10.492;2022-11-21T07:44:24;0.35;;;0.35;;
60368;SDS011;46208;44.634;10.492;2022-11-21T07:47:28;0.50;;;0.43;;
60368;SDS011;46208;44.634;10.492;2022-11-21T07:50:32;0.45;;;0.45;;
60368;SDS011;46208;44.634;10.492;2022-11-21T07:53:36;0.43;;;0.43;;
60368;SDS011;46208;44.634;10.492;2022-11-21T07:56:40;0.22;;;0.22;;
60368;SDS011;46208;44.634;10.492;2022-11-21T07:59:43;1.25;;;0.95;;
60368;SDS011;46208;44.634;10.492;2022-11-21T08:02:48;0.50;;;0.50;;
60368;SDS011;46208;44.634;10.492;2022-11-21T08:05:52;0.60;;;0.60;;
60368;SDS011;46208;44.634;10.492;2022-11-21T08:08:55;0.82;;;0.45;;
60368;SDS011;46208;44.634;10.492;2022-11-21T08:11:59;2.70;;;0.75;;
60368;SDS011;46208;44.634;10.492;2022-11-21T08:15:03;0.35;;;0.35;;
60368;SDS011;46208;44.634;10.492;2022-11-21T08:18:10;0.38;;;0.38;;
60368;SDS011;46208;44.634;10.492;2022-11-21T08:21:15;0.55;;;0.50;;
60368;SDS011;46208;44.634;10.492;2022-11-21T08:24:18;1.05;;;0.60;;
60368;SDS011;46208;44.634;10.492;2022-11-21T08:27:22;2.42;;;1.63;;
60368;SDS011;46208;44.634;10.492;2022-11-21T08:30:26;0.55;;;0.55;;
60368;SDS011;46208;44.634;10.492;2022-11-21T08:33:30;0.60;;;0.60;;
60368;SDS011;46208;44.634;10.492;2022-11-21T08:36:34;1.02;;;0.95;;
60368;SDS011;46208;44.634;10.492;2022-11-21T08:39:38;1.05;;;0.70;;
60368;SDS011;46208;44.634;10.492;2022-11-21T08:42:42;0.75;;;0.60;;
60368;SDS011;46208;44.634;10.492;2022-11-21T08:45:46;1.05;;;1.05;;
60368;SDS011;46208;44.634;10.492;2022-11-21T08:48:49;0.50;;;0.50;;
60368;SDS011;46208;44.634;10.492;2022-11-21T08:51:53;0.40;;;0.40;;
60368;SDS011;46208;44.634;10.492;2022-11-21T08:54:57;0.82;;;0.82;;
60368;SDS011;46208;44.634;10.492;2022-11-21T08:58:01;0.85;;;0.85;;
60368;SDS011;46208;44.634;10.492;2022-11-21T09:01:05;1.30;;;1.05;;
60368;SDS011;46208;44.634;10.492;2022-11-21T09:04:09;0.82;;;0.82;;
60368;SDS011;46208;44.634;10.492;2022-11-21T09:07:13;0.80;;;0.80;;
60368;SDS011;46208;44.634;10.492;2022-11-21T09:10:17;1.10;;;1.00;;
60368;SDS011;46208;44.634;10.492;2022-11-21T09:13:21;1.23;;;0.90;;
60368;SDS011;46208;44.634;10.492;2022-11-21T09:16:24;0.40;;;0.40;;
60368;SDS011;46208;44.634;10.492;2022-11-21T09:19:47;1.65;;;0.88;;
60368;SDS011;46208;44.634;10.492;2022-11-21T09:22:50;0.40;;;0.40;;
60368;SDS011;46208;44.634;10.492;2022-11-21T09:25:54;1.23;;;0.57;;
60368;SDS011;46208;44.634;10.492;2022-11-21T09:28:58;1.75;;;1.05;;
60368;SDS011;46208;44.634;10.492;2022-11-21T09:32:02;0.40;;;0.40;;
60368;SDS011;46208;44.634;10.492;2022-11-21T09:35:05;0.93;;;0.70;;
60368;SDS011;46208;44.634;10.492;2022-11-21T09:38:09;0.63;;;0.63;;
60368;SDS011;46208;44.634;10.492;2022-11-21T09:48:01;0.68;;;0.68;;
60368;SDS011;46208;44.634;10.492;2022-11-21T09:51:06;1.38;;;1.00;;
60368;SDS011;46208;44.634;10.492;2022-11-21T09:57:20;0.85;;;0.70;;
60368;SDS011;46208;44.634;10.492;2022-11-21T10:00:25;0.57;;;0.40;;
60368;SDS011;46208;44.634;10.492;2022-11-21T10:03:30;0.60;;;0.55;;
60368;SDS011;46208;44.634;10.492;2022-11-21T10:06:46;1.27;;;1.17;;
60368;SDS011;46208;44.634;10.492;2022-11-21T10:20:18;0.75;;;0.75;;
60368;SDS011;46208;44.634;10.492;2022-11-21T10:23:45;0.57;;;0.52;;
60368;SDS011;46208;44.634;10.492;2022-11-21T10:27:32;3.75;;;0.90;;
60368;SDS011;46208;44.634;10.492;2022-11-21T10:30:39;1.10;;;1.00;;
60368;SDS011;46208;44.634;10.492;2022-11-21T10:33:45;1.47;;;0.90;;
60368;SDS011;46208;44.634;10.492;2022-11-21T10:36:53;1.52;;;1.42;;
60368;SDS011;46208;44.634;10.492;2022-11-21T10:46:53;3.30;;;1.45;;
60368;SDS011;46208;44.634;10.492;2022-11-21T10:53:21;1.30;;;1.20;;
60368;SDS011;46208;44.634;10.492;2022-11-21T10:56:46;1.15;;;1.00;;
60368;SDS011;46208;44.634;10.492;2022-11-21T11:03:15;1.02;;;0.85;;
60368;SDS011;46208;44.634;10.492;2022-11-21T11:06:26;0.80;;;0.80;;
60368;SDS011;46208;44.634;10.492;2022-11-21T11:09:32;0.88;;;0.88;;
60368;SDS011;46208;44.634;10.492;2022-11-21T11:12:36;4.22;;;1.60;;
60368;SDS011;46208;44.634;10.492;2022-11-21T11:16:03;1.80;;;1.30;;
60368;SDS011;46208;44.634;10.492;2022-11-21T11:22:27;2.85;;;1.65;;
60368;SDS011;46208;44.634;10.492;2022-11-21T11:25:33;2.22;;;1.60;;
60368;SDS011;46208;44.634;10.492;2022-11-21T11:28:36;2.83;;;1.95;;
60368;SDS011;46208;44.634;10.492;2022-11-21T11:31:48;1.95;;;1.15;;
60368;SDS011;46208;44.634;10.492;2022-11-21T11:38:00;2.85;;;2.03;;
60368;SDS011;46208;44.634;10.492;2022-11-21T11:41:24;3.97;;;2.67;;
60368;SDS011;46208;44.634;10.492;2022-11-21T11:45:04;3.80;;;2.33;;
60368;SDS011;46208;44.634;10.492;2022-11-21T11:48:36;2.67;;;2.47;;
60368;SDS011;46208;44.634;10.492;2022-11-21T11:51:43;3.67;;;2.00;;
60368;SDS011;46208;44.634;10.492;2022-11-21T11:54:51;6.38;;;2.75;;
60368;SDS011;46208;44.634;10.492;2022-11-21T11:57:59;2.67;;;1.88;;
60368;SDS011;46208;44.634;10.492;2022-11-21T12:04:14;4.78;;;2.33;;
60368;SDS011;46208;44.634;10.492;2022-11-21T12:10:33;7.82;;;3.25;;
60368;SDS011;46208;44.634;10.492;2022-11-21T12:14:30;3.38;;;2.20;;
60368;SDS011;46208;44.634;10.492;2022-11-21T12:18:12;3.33;;;2.03;;
60368;SDS011;46208;44.634;10.492;2022-11-21T12:21:21;4.13;;;1.83;;
60368;SDS011;46208;44.634;10.492;2022-11-21T12:24:25;4.47;;;2.70;;
60368;SDS011;46208;44.634;10.492;2022-11-21T12:54:56;4.22;;;2.33;;
60368;SDS011;46208;44.634;10.492;2022-11-21T12:58:24;2.78;;;2.58;;
60368;SDS011;46208;44.634;10.492;2022-11-21T13:05:31;2.40;;;2.10;;
60368;SDS011;46208;44.634;10.492;2022-11-21T13:08:39;4.45;;;3.28;;
60368;SDS011;46208;44.634;10.492;2022-11-21T13:11:55;2.55;;;1.98;;
60368;SDS011;46208;44.634;10.492;2022-11-21T13:18:25;5.07;;;2.88;;
60368;SDS011;46208;44.634;10.492;2022-11-21T13:21:42;5.18;;;2.55;;
60368;SDS011;46208;44.634;10.492;2022-11-21T13:27:54;3.75;;;2.45;;
60368;SDS011;46208;44.634;10.492;2022-11-21T13:30:59;5.43;;;2.20;;
60368;SDS011;46208;44.634;10.492;2022-11-21T13:34:04;4.22;;;2.25;;
60368;SDS011;46208;44.634;10.492;2022-11-21T13:37:08;2.08;;;1.85;;
60368;SDS011;46208;44.634;10.492;2022-11-21T13:43:31;11.48;;;5.60;;
60368;SDS011;46208;44.634;10.492;2022-11-21T13:50:08;3.60;;;2.30;;
60368;SDS011;46208;44.634;10.492;2022-11-21T13:53:48;4.97;;;2.83;;
60368;SDS011;46208;44.634;10.492;2022-11-21T14:07:15;5.25;;;2.95;;
60368;SDS011;46208;44.634;10.492;2022-11-21T14:13:36;3.28;;;2.67;;
60368;SDS011;46208;44.634;10.492;2022-11-21T14:16:43;7.03;;;3.25;;
60368;SDS011;46208;44.634;10.492;2022-11-21T14:19:50;4.55;;;2.60;;
60368;SDS011;46208;44.634;10.492;2022-11-21T14:26:22;2.97;;;2.45;;
60368;SDS011;46208;44.634;10.492;2022-11-21T14:29:36;4.32;;;2.22;;
60368;SDS011;46208;44.634;10.492;2022-11-21T14:32:41;2.50;;;1.92;;
60368;SDS011;46208;44.634;10.492;2022-11-21T14:35:49;3.05;;;2.65;;
60368;SDS011;46208;44.634;10.492;2022-11-21T14:39:05;3.22;;;2.72;;
60368;SDS011;46208;44.634;10.492;2022-11-21T14:42:11;4.85;;;2.53;;
60368;SDS011;46208;44.634;10.492;2022-11-21T14:45:21;3.45;;;2.70;;
60368;SDS011;46208;44.634;10.492;2022-11-21T14:48:26;4.22;;;3.58;;
60368;SDS011;46208;44.634;10.492;2022-11-21T14:51:31;2.38;;;2.05;;
60368;SDS011;46208;44.634;10.492;2022-11-21T14:54:45;2.95;;;2.13;;
60368;SDS011;46208;44.634;10.492;2022-11-21T14:57:52;4.95;;;3.53;;
60368;SDS011;46208;44.634;10.492;2022-11-21T15:01:01;4.25;;;3.50;;
60368;SDS011;46208;44.634;10.492;2022-11-21T15:04:26;4.38;;;1.88;;
60368;SDS011;46208;44.634;10.492;2022-11-21T15:07:39;3.35;;;2.50;;
60368;SDS011;46208;44.634;10.492;2022-11-21T15:10:45;4.60;;;2.95;;
60368;SDS011;46208;44.634;10.492;2022-11-21T15:13:52;7.95;;;3.92;;
60368;SDS011;46208;44.634;10.492;2022-11-21T15:16:59;7.07;;;4.25;;
60368;SDS011;46208;44.634;10.492;2022-11-21T15:23:24;3.33;;;2.42;;
60368;SDS011;46208;44.634;10.492;2022-11-21T15:26:32;5.05;;;3.20;;
60368;SDS011;46208;44.634;10.492;2022-11-21T15:29:38;7.13;;;4.13;;
60368;SDS011;46208;44.634;10.492;2022-11-21T15:36:11;2.80;;;1.98;;
60368;SDS011;46208;44.634;10.492;2022-11-21T15:45:37;2.60;;;1.70;;
60368;SDS011;46208;44.634;10.492;2022-11-21T15:48:48;3.67;;;2.88;;
60368;SDS011;46208;44.634;10.492;2022-11-21T15:51:56;3.70;;;2.70;;
60368;SDS011;46208;44.634;10.492;2022-11-21T15:55:00;2.13;;;1.95;;
60368;SDS011;46208;44.634;10.492;2022-11-21T15:58:04;3.05;;;2.65;;
60368;SDS011;46208;44.634;10.492;2022-11-21T16:01:12;8.07;;;2.25;;
60368;SDS011;46208;44.634;10.492;2022-11-21T16:04:23;9.73;;;2.97;;
60368;SDS011;46208;44.634;10.492;2022-11-21T16:07:27;6.95;;;3.85;;
60368;SDS011;46208;44.634;10.492;2022-11-21T16:10:31;2.95;;;2.72;;
60368;SDS011;46208;44.634;10.492;2022-11-21T16:13:35;5.13;;;3.10;;
60368;SDS011;46208;44.634;10.492;2022-11-21T16:16:40;2.90;;;2.08;;
60368;SDS011;46208;44.634;10.492;2022-11-21T16:19:45;4.32;;;2.95;;
60368;SDS011;46208;44.634;10.492;2022-11-21T16:22:49;4.25;;;3.65;;
60368;SDS011;46208;44.634;10.492;2022-11-21T16:25:54;5.53;;;4.28;;
60368;SDS011;46208;44.634;10.492;2022-11-21T16:28:58;3.88;;;3.33;;
60368;SDS011;46208;44.634;10.492;2022-11-21T16:32:03;4.82;;;3.88;;
60368;SDS011;46208;44.634;10.492;2022-11-21T16:35:07;4.55;;;3.15;;
60368;SDS011;46208;44.634;10.492;2022-11-21T16:38:11;5.90;;;3.38;;
60368;SDS011;46208;44.634;10.492;2022-11-21T16:41:20;5.30;;;3.78;;
60368;SDS011;46208;44.634;10.492;2022-11-21T16:44:26;6.88;;;5.20;;
60368;SDS011;46208;44.634;10.492;2022-11-21T16:47:34;7.43;;;3.65;;
60368;SDS011;46208;44.634;10.492;2022-11-21T16:50:39;4.05;;;2.72;;
60368;SDS011;46208;44.634;10.492;2022-11-21T16:53:45;4.05;;;3.70;;
60368;SDS011;46208;44.634;10.492;2022-11-21T16:56:51;6.28;;;3.72;;
60368;SDS011;46208;44.634;10.492;2022-11-21T16:59:55;8.18;;;4.35;;
60368;SDS011;46208;44.634;10.492;2022-11-21T17:02:59;5.38;;;4.53;;
60368;SDS011;46208;44.634;10.492;2022-11-21T17:06:04;8.50;;;4.25;;
60368;SDS011;46208;44.634;10.492;2022-11-21T17:09:08;3.95;;;3.55;;
60368;SDS011;46208;44.634;10.492;2022-11-21T17:12:14;5.63;;;3.10;;
60368;SDS011;46208;44.634;10.492;2022-11-21T17:15:17;3.95;;;3.13;;
60368;SDS011;46208;44.634;10.492;2022-11-21T17:18:22;5.22;;;3.25;;
60368;SDS011;46208;44.634;10.492;2022-11-21T17:21:32;6.25;;;2.70;;
60368;SDS011;46208;44.634;10.492;2022-11-21T17:24:36;3.38;;;3.05;;
60368;SDS011;46208;44.634;10.492;2022-11-21T17:27:40;5.88;;;3.72;;
60368;SDS011;46208;44.634;10.492;2022-11-21T17:30:44;7.22;;;3.80;;
60368;SDS011;46208;44.634;10.492;2022-11-21T17:33:48;6.28;;;3.55;;
60368;SDS011;46208;44.634;10.492;2022-11-21T17:36:57;3.70;;;3.38;;
60368;SDS011;46208;44.634;10.492;2022-11-21T17:40:02;4.10;;;3.75;;
60368;SDS011;46208;44.634;10.492;2022-11-21T17:43:07;4.57;;;3.10;;
60368;SDS011;46208;44.634;10.492;2022-11-21T17:46:12;5.50;;;3.22;;
60368;SDS011;46208;44.634;10.492;2022-11-21T17:49:17;6.13;;;3.10;;
60368;SDS011;46208;44.634;10.492;2022-11-21T17:52:22;2.83;;;2.40;;
60368;SDS011;46208;44.634;10.492;2022-11-21T17:55:26;6.88;;;3.38;;
60368;SDS011;46208;44.634;10.492;2022-11-21T17:58:33;3.67;;;3.13;;
60368;SDS011;46208;44.634;10.492;2022-11-21T18:01:43;3.88;;;2.80;;
60368;SDS011;46208;44.634;10.492;2022-11-21T18:04:51;4.05;;;2.95;;
60368;SDS011;46208;44.634;10.492;2022-11-21T18:08:03;5.57;;;2.90;;
60368;SDS011;46208;44.634;10.492;2022-11-21T18:11:10;3.67;;;3.33;;
60368;SDS011;46208;44.634;10.492;2022-11-21T18:14:16;3.22;;;2.92;;
60368;SDS011;46208;44.634;10.492;2022-11-21T18:17:22;4.00;;;2.90;;
60368;SDS011;46208;44.634;10.492;2022-11-21T18:20:26;5.53;;;3.65;;
60368;SDS011;46208;44.634;10.492;2022-11-21T18:23:32;5.45;;;4.15;;
60368;SDS011;46208;44.634;10.492;2022-11-21T18:26:37;5.57;;;2.70;;
60368;SDS011;46208;44.634;10.492;2022-11-21T18:29:43;5.70;;;4.40;;
60368;SDS011;46208;44.634;10.492;2022-11-21T18:32:47;11.15;;;4.88;;
60368;SDS011;46208;44.634;10.492;2022-11-21T18:35:55;3.53;;;2.63;;
60368;SDS011;46208;44.634;10.492;2022-11-21T18:38:59;10.30;;;5.35;;
60368;SDS011;46208;44.634;10.492;2022-11-21T18:42:04;5.20;;;3.50;;
60368;SDS011;46208;44.634;10.492;2022-11-21T18:48:40;4.95;;;4.40;;
60368;SDS011;46208;44.634;10.492;2022-11-21T18:51:44;5.30;;;2.78;;
60368;SDS011;46208;44.634;10.492;2022-11-21T18:54:49;7.78;;;5.75;;
60368;SDS011;46208;44.634;10.492;2022-11-21T18:57:53;4.95;;;4.47;;
60368;SDS011;46208;44.634;10.492;2022-11-21T19:00:59;5.40;;;4.13;;
60368;SDS011;46208;44.634;10.492;2022-11-21T19:04:07;5.70;;;4.82;;
60368;SDS011;46208;44.634;10.492;2022-11-21T19:10:40;7.03;;;5.13;;
60368;SDS011;46208;44.634;10.492;2022-11-21T19:13:45;5.95;;;4.00;;
60368;SDS011;46208;44.634;10.492;2022-11-21T19:19:57;5.47;;;4.97;;
60368;SDS011;46208;44.634;10.492;2022-11-21T19:23:01;7.35;;;4.00;;
60368;SDS011;46208;44.634;10.492;2022-11-21T19:26:07;7.63;;;5.30;;
60368;SDS011;46208;44.634;10.492;2022-11-21T19:29:18;7.93;;;3.85;;
60368;SDS011;46208;44.634;10.492;2022-11-21T19:32:24;5.05;;;3.33;;
60368;SDS011;46208;44.634;10.492;2022-11-21T19:35:28;10.10;;;5.57;;
60368;SDS011;46208;44.634;10.492;2022-11-21T19:38:33;12.13;;;7.38;;
60368;SDS011;46208;44.634;10.492;2022-11-21T19:41:39;10.65;;;5.95;;
60368;SDS011;46208;44.634;10.492;2022-11-21T19:44:44;7.72;;;5.53;;
60368;SDS011;46208;44.634;10.492;2022-11-21T19:47:50;12.13;;;6.38;;
60368;SDS011;46208;44.634;10.492;2022-11-21T19:51:01;6.22;;;4.40;;
60368;SDS011;46208;44.634;10.492;2022-11-21T19:54:07;6.40;;;2.92;;
60368;SDS011;46208;44.634;10.492;2022-11-21T19:57:14;5.85;;;3.38;;
60368;SDS011;46208;44.634;10.492;2022-11-21T20:00:26;3.63;;;3.33;;
60368;SDS011;46208;44.634;10.492;2022-11-21T20:12:33;8.38;;;4.30;;
60368;SDS011;46208;44.634;10.492;2022-11-21T20:29:56;7.68;;;4.70;;
60368;SDS011;46208;44.634;10.492;2022-11-21T20:37:56;7.32;;;3.95;;
60368;SDS011;46208;44.634;10.492;2022-11-21T20:45:36;8.05;;;4.35;;
60368;SDS011;46208;44.634;10.492;2022-11-21T20:49:57;6.47;;;4.75;;
60368;SDS011;46208;44.634;10.492;2022-11-21T20:53:35;4.72;;;4.25;;
60368;SDS011;46208;44.634;10.492;2022-11-21T21:04:39;7.93;;;5.20;;
60368;SDS011;46208;44.634;10.492;2022-11-21T21:12:40;8.70;;;5.05;;
60368;SDS011;46208;44.634;10.492;2022-11-21T21:16:12;9.88;;;5.35;;
60368;SDS011;46208;44.634;10.492;2022-11-21T21:20:16;20.63;;;5.95;;
60368;SDS011;46208;44.634;10.492;2022-11-21T21:24:14;10.10;;;6.13;;
60368;SDS011;46208;44.634;10.492;2022-11-21T21:34:45;9.27;;;6.85;;
60368;SDS011;46208;44.634;10.492;2022-11-21T21:38:55;12.77;;;6.10;;
60368;SDS011;46208;44.634;10.492;2022-11-21T21:42:18;10.27;;;7.72;;